createdAt,value
2019-04-22T00:00:51.431Z,58.27
2019-04-22T00:03:21.757Z,58.74
2019-04-22T00:06:14.603Z,59.42
2019-04-22T00:08:43.092Z,59.51
2019-04-22T00:11:27.269Z,59.00
2019-04-22T00:13:51.926Z,58.63
2019-04-22T00:16:27.977Z,58.42
2019-04-22T00:19:15.297Z,58.09
2019-04-22T00:21:25.825Z,58.09
2019-04-22T00:24:00.581Z,58.07
2019-04-22T00:26:31.194Z,58.16
2019-04-22T00:29:21.305Z,58.56
2019-04-22T00:31:33.287Z,58.73
2019-04-22T00:34:06.136Z,58.89
2019-04-22T00:36:41.998Z,59.64
2019-04-22T00:39:16.725Z,60.27
2019-04-22T00:41:42.816Z,60.88
2019-04-22T00:44:19.858Z,61.09
2019-04-22T00:46:54.165Z,61.14
2019-04-22T00:50:00.413Z,60.74
2019-04-22T00:54:23.490Z,60.24
2019-04-22T00:56:59.126Z,59.99
2019-04-22T00:59:23.335Z,59.88
2019-04-22T01:02:01.911Z,59.82
2019-04-22T01:04:34.627Z,60.07
2019-04-22T01:06:57.550Z,60.57
2019-04-22T01:09:38.946Z,60.41
2019-04-22T01:12:12.191Z,60.48
2019-04-22T01:14:37.566Z,60.38
2019-04-22T01:17:07.934Z,60.18
2019-04-22T01:19:52.602Z,60.16
2019-04-22T01:22:17.763Z,60.39
2019-04-22T01:24:48.621Z,60.64
2019-04-22T01:27:12.987Z,60.69
2019-04-22T01:29:43.196Z,60.45
2019-04-22T01:32:06.203Z,60.25
2019-04-22T01:34:49.915Z,60.47
2019-04-22T01:37:24.065Z,60.33
2019-04-22T01:40:04.763Z,60.08
2019-04-22T01:42:39.428Z,60.30
2019-04-22T01:45:12.093Z,60.83
2019-04-22T01:50:12.133Z,62.03
2019-04-22T01:52:46.769Z,61.80
2019-04-22T01:55:17.721Z,61.83
2019-04-22T01:57:41.933Z,61.93
2019-04-22T02:00:05.835Z,61.99
2019-04-22T02:02:48.956Z,61.86
2019-04-22T02:05:24.826Z,61.12
2019-04-22T02:07:56.161Z,60.62
2019-04-22T02:10:29.559Z,60.40
2019-04-22T02:13:02.018Z,60.60
2019-04-22T02:15:47.856Z,61.13
2019-04-22T02:18:01.345Z,61.33
2019-04-22T02:20:36.610Z,61.21
2019-04-22T02:26:02.485Z,60.89
2019-04-22T02:28:38.422Z,60.85
2019-04-22T02:34:05.372Z,60.81
2019-04-22T02:36:30.533Z,61.00
2019-04-22T02:44:12.106Z,60.72
2019-04-22T02:46:39.192Z,60.72
2019-04-22T02:51:22.130Z,61.24
2019-04-22T03:04:04.558Z,61.07
2019-04-22T03:16:48.838Z,61.81
2019-04-22T03:24:20.309Z,62.33
2019-04-22T03:26:48.592Z,62.71
2019-04-22T03:29:18.112Z,62.47
2019-04-22T03:39:44.923Z,61.97
2019-04-22T03:42:11.007Z,62.28
2019-04-22T03:54:53.891Z,61.90
2019-04-22T03:59:51.396Z,61.93
2019-04-22T04:02:35.755Z,61.89
2019-04-22T04:04:52.405Z,61.87
2019-04-22T04:07:32.436Z,61.90
2019-04-22T04:09:58.235Z,61.95
2019-04-22T04:15:09.406Z,62.46
2019-04-22T04:25:16.794Z,62.63
2019-04-22T04:28:22.909Z,63.32
2019-04-22T04:30:13.741Z,63.66
2019-04-22T04:35:35.035Z,65.25
2019-04-22T04:42:46.354Z,65.08
2019-04-22T04:45:34.096Z,64.64
2019-04-22T04:50:26.734Z,63.20
2019-04-22T05:03:08.132Z,62.28
2019-04-22T05:05:31.798Z,62.19
2019-04-22T05:08:00.307Z,62.07
2019-04-22T05:13:26.062Z,61.97
2019-04-22T05:15:43.405Z,61.94
2019-04-22T05:23:19.401Z,61.95
2019-04-22T05:25:41.391Z,62.12
2019-04-22T05:28:10.384Z,62.33
2019-04-22T05:30:50.304Z,62.50
2019-04-22T05:33:17.538Z,62.65
2019-04-22T05:35:46.295Z,62.75
2019-04-22T05:38:30.795Z,62.91
2019-04-22T05:40:54.635Z,63.09
2019-04-22T05:43:21.326Z,63.48
2019-04-22T05:45:54.471Z,63.77
2019-04-22T05:48:30.525Z,64.02
2019-04-22T05:50:59.461Z,64.36
2019-04-22T05:53:25.971Z,64.77
2019-04-22T05:56:09.941Z,64.79
2019-04-22T05:58:41.531Z,65.14
2019-04-22T06:01:30.746Z,65.33
2019-04-22T06:03:42.581Z,65.88
2019-04-22T06:06:10.625Z,66.07
2019-04-22T06:08:42.458Z,66.23
2019-04-22T06:11:24.461Z,66.60
2019-04-22T06:13:50.242Z,66.63
2019-04-22T06:16:25.875Z,67.26
2019-04-22T06:19:01.045Z,67.71
2019-04-22T06:21:35.792Z,67.95
2019-04-22T06:24:06.365Z,68.33
2019-04-22T06:26:48.877Z,68.03
2019-04-22T06:29:13.328Z,67.77
2019-04-22T06:31:49.715Z,67.56
2019-04-22T06:34:10.523Z,67.58
2019-04-22T06:36:46.322Z,67.75
2019-04-22T06:39:14.282Z,67.91
2019-04-22T06:41:50.553Z,68.25
2019-04-22T06:44:33.381Z,68.82
2019-04-22T06:46:47.966Z,68.86
2019-04-22T06:49:27.367Z,68.45
2019-04-22T06:51:55.718Z,69.24
2019-04-22T06:54:22.249Z,69.61
2019-04-22T06:56:57.794Z,70.01
2019-04-22T06:59:26.559Z,69.99
2019-04-22T07:04:28.222Z,70.41
2019-04-22T07:07:04.723Z,70.02
2019-04-22T07:09:42.859Z,69.59
2019-04-22T07:12:08.386Z,69.36
2019-04-22T07:14:37.118Z,69.23
2019-04-22T07:17:10.229Z,69.00
2019-04-22T07:19:40.368Z,68.91
2019-04-22T07:22:11.258Z,68.71
2019-04-22T07:29:50.725Z,68.16
2019-04-22T07:32:17.305Z,68.05
2019-04-22T07:34:52.182Z,68.17
2019-04-22T07:37:29.680Z,68.23
2019-04-22T07:39:45.905Z,68.19
2019-04-22T07:42:27.868Z,67.87
2019-04-22T07:47:34.159Z,67.53
2019-04-22T07:50:03.964Z,67.55
2019-04-22T07:52:27.829Z,67.40
2019-04-22T07:54:59.517Z,67.36
2019-04-22T07:57:46.590Z,67.54
2019-04-22T08:02:37.457Z,67.53
2019-04-22T08:07:35.982Z,67.52
2019-04-22T08:10:16.998Z,67.56
2019-04-22T08:15:12.627Z,68.01
2019-04-22T08:20:18.910Z,67.69
2019-04-22T08:22:51.024Z,67.68
2019-04-22T08:25:16.503Z,67.79
2019-04-22T08:27:51.882Z,67.66
2019-04-22T08:30:28.937Z,67.22
2019-04-22T08:32:58.898Z,67.09
2019-04-22T08:35:29.373Z,67.24
2019-04-22T08:37:57.555Z,67.30
2019-04-22T08:40:32.163Z,67.48
2019-04-22T08:43:09.177Z,67.85
2019-04-22T08:45:31.774Z,68.20
2019-04-22T08:48:01.613Z,68.36
2019-04-22T08:50:39.517Z,68.13
2019-04-22T08:53:11.088Z,67.63
2019-04-22T08:58:21.337Z,67.29
2019-04-22T09:00:49.910Z,66.70
2019-04-22T09:03:13.724Z,66.39
2019-04-22T09:08:19.095Z,65.80
2019-04-22T09:10:50.319Z,65.51
2019-04-22T09:13:26.378Z,65.30
2019-04-22T09:15:48.906Z,65.15
2019-04-22T09:18:33.225Z,65.20
2019-04-22T09:21:08.796Z,64.65
2019-04-22T09:23:30.334Z,64.24
2019-04-22T09:26:01.434Z,63.77
2019-04-22T09:28:34.527Z,63.68
2019-04-22T09:31:06.464Z,63.43
2019-04-22T09:33:31.901Z,63.55
2019-04-22T09:38:38.189Z,63.38
2019-04-22T09:41:10.681Z,63.23
2019-04-22T09:43:47.075Z,63.00
2019-04-22T09:46:14.896Z,62.80
2019-04-22T09:48:44.128Z,62.75
2019-04-22T09:51:12.233Z,62.76
2019-04-22T09:53:54.897Z,62.62
2019-04-22T09:56:17.807Z,62.16
2019-04-22T09:58:53.583Z,62.06
2019-04-22T10:06:27.797Z,63.00
2019-04-22T10:09:24.057Z,62.83
2019-04-22T10:14:01.630Z,62.53
2019-04-22T10:16:31.355Z,62.76
2019-04-22T10:24:03.416Z,62.66
2019-04-22T10:26:39.817Z,62.79
2019-04-22T10:29:10.988Z,62.57
2019-04-22T10:31:57.539Z,62.65
2019-04-22T10:34:00.129Z,62.64
2019-04-22T10:36:19.584Z,62.75
2019-04-22T10:38:50.482Z,62.05
2019-04-22T10:41:20.683Z,62.06
2019-04-22T10:43:51.001Z,61.52
2019-04-22T10:46:22.192Z,61.64
2019-04-22T10:48:52.737Z,61.78
2019-04-22T10:51:22.538Z,61.52
2019-04-22T10:53:53.417Z,61.45
2019-04-22T10:56:23.289Z,61.31
2019-04-22T10:58:53.041Z,61.06
2019-04-22T11:01:23.275Z,61.07
2019-04-22T11:03:53.195Z,60.83
2019-04-22T11:06:25.376Z,60.51
2019-04-22T11:08:59.775Z,60.35
2019-04-22T11:11:41.255Z,60.32
2019-04-22T11:14:00.093Z,59.82
2019-04-22T11:16:31.727Z,60.05
2019-04-22T11:19:01.557Z,59.80
2019-04-22T11:21:31.770Z,59.77
2019-04-22T11:24:02.836Z,59.15
2019-04-22T11:26:32.686Z,59.29
2019-04-22T11:29:03.585Z,59.29
2019-04-22T11:31:34.462Z,59.17
2019-04-22T11:34:04.348Z,58.97
2019-04-22T11:36:34.533Z,59.12
2019-04-22T11:39:09.706Z,58.90
2019-04-22T11:41:38.492Z,58.65
2019-04-22T11:44:09.540Z,58.04
2019-04-22T11:46:39.484Z,57.95
2019-04-22T11:49:09.943Z,57.83
2019-04-22T11:51:40.407Z,57.79
2019-04-22T11:54:10.618Z,57.72
2019-04-22T11:56:41.007Z,57.75
2019-04-22T11:59:10.973Z,57.31
2019-04-22T12:01:40.689Z,56.91
2019-04-22T12:04:11.661Z,56.69
2019-04-22T12:06:41.975Z,56.05
2019-04-22T12:09:15.259Z,55.49
2019-04-22T12:11:46.773Z,54.86
2019-04-22T12:14:18.078Z,54.67
2019-04-22T12:16:49.740Z,53.86
2019-04-22T12:19:20.828Z,52.25
2019-04-22T12:21:51.191Z,49.82
2019-04-22T12:24:21.455Z,48.49
2019-04-22T12:26:53.749Z,46.86
2019-04-22T12:29:24.765Z,44.71
2019-04-22T12:31:55.578Z,43.10
2019-04-22T12:34:25.747Z,42.02
2019-04-22T12:36:56.334Z,41.37
2019-04-22T12:39:27.487Z,39.97
2019-04-22T12:41:58.431Z,39.70
2019-04-22T12:44:30.406Z,39.69
2019-04-22T12:47:02.089Z,39.67
2019-04-22T12:49:32.254Z,39.13
2019-04-22T12:52:03.165Z,39.18
2019-04-22T12:54:33.129Z,38.73
2019-04-22T12:57:03.987Z,38.31
2019-04-22T12:59:35.248Z,37.48
2019-04-22T13:02:05.130Z,37.09
2019-04-22T13:04:36.141Z,36.72
2019-04-22T13:07:06.173Z,36.16
2019-04-22T13:09:37.026Z,35.67
2019-04-22T13:12:07.159Z,35.67
2019-04-22T13:14:36.953Z,34.97
2019-04-22T13:17:08.052Z,34.48
2019-04-22T13:19:38.112Z,34.48
2019-04-22T13:22:09.127Z,34.05
2019-04-22T13:24:39.682Z,33.81
2019-04-22T13:27:10.937Z,33.76
2019-04-22T13:29:41.207Z,33.43
2019-04-22T13:32:10.987Z,33.40
2019-04-22T13:34:46.617Z,33.67
2019-04-22T13:37:14.732Z,33.63
2019-04-22T13:39:45.079Z,33.29
2019-04-22T13:42:19.655Z,33.04
2019-04-22T13:44:46.438Z,32.74
2019-04-22T13:47:36.075Z,32.26
2019-04-22T13:50:25.973Z,32.20
2019-04-22T13:52:53.618Z,32.29
2019-04-22T13:55:22.080Z,32.66
2019-04-22T13:57:44.083Z,33.05
2019-04-22T13:59:57.633Z,33.60
2019-04-22T14:02:36.800Z,34.25
2019-04-22T14:05:10.562Z,35.04
2019-04-22T14:07:41.193Z,35.11
2019-04-22T14:10:12.136Z,35.32
2019-04-22T14:12:42.675Z,35.99
2019-04-22T14:15:13.911Z,36.08
2019-04-22T14:17:45.260Z,36.60
2019-04-22T14:20:15.821Z,37.03
2019-04-22T14:22:46.302Z,37.03
2019-04-22T14:25:16.619Z,37.56
2019-04-22T14:27:54.507Z,37.67
2019-04-22T14:30:20.903Z,37.65
2019-04-22T14:32:51.291Z,37.73
2019-04-22T14:35:23.000Z,37.99
2019-04-22T14:37:54.407Z,38.14
2019-04-22T14:40:26.565Z,38.59
2019-04-22T14:43:13.870Z,38.71
2019-04-22T14:46:04.051Z,38.91
2019-04-22T14:48:28.586Z,38.91
2019-04-22T14:50:51.404Z,39.01
2019-04-22T14:53:23.674Z,38.54
2019-04-22T14:55:38.320Z,38.54
2019-04-22T14:58:08.986Z,38.68
2019-04-22T15:00:40.017Z,38.38
2019-04-22T15:03:10.302Z,38.38
2019-04-22T15:05:40.141Z,38.34
2019-04-22T15:08:10.972Z,38.02
2019-04-22T15:10:42.125Z,38.08
2019-04-22T15:13:13.459Z,38.07
2019-04-22T15:15:48.943Z,38.07
2019-04-22T15:18:21.895Z,38.21
2019-04-22T15:20:54.283Z,38.21
2019-04-22T15:23:24.883Z,38.20
2019-04-22T15:25:54.770Z,38.34
2019-04-22T15:28:24.705Z,38.19
2019-04-22T15:30:59.481Z,38.11
2019-04-22T15:33:29.642Z,38.39
2019-04-22T15:35:59.467Z,38.27
2019-04-22T15:38:30.225Z,38.05
2019-04-22T15:41:00.927Z,37.82
2019-04-22T15:43:33.253Z,37.69
2019-04-22T15:46:03.828Z,37.27
2019-04-22T15:48:36.144Z,37.19
2019-04-22T15:51:06.843Z,37.20
2019-04-22T15:53:37.834Z,37.21
2019-04-22T15:56:08.527Z,36.95
2019-04-22T15:58:41.688Z,37.10
2019-04-22T16:01:28.061Z,36.84
2019-04-22T16:03:47.110Z,36.68
2019-04-22T16:06:17.743Z,36.64
2019-04-22T16:08:49.830Z,36.61
2019-04-22T16:11:20.033Z,36.34
2019-04-22T16:13:50.594Z,36.44
2019-04-22T16:16:22.944Z,36.43
2019-04-22T16:18:54.083Z,37.29
2019-04-22T16:21:32.734Z,37.69
2019-04-22T16:24:20.181Z,38.15
2019-04-22T16:26:58.192Z,38.51
2019-04-22T16:29:27.476Z,38.91
2019-04-22T16:31:57.627Z,39.24
2019-04-22T16:34:27.389Z,39.41
2019-04-22T16:36:57.022Z,39.72
2019-04-22T16:39:28.729Z,40.04
2019-04-22T16:41:58.531Z,40.32
2019-04-22T16:44:28.220Z,40.55
2019-04-22T16:46:57.833Z,40.70
2019-04-22T16:49:29.780Z,41.04
2019-04-22T16:52:00.322Z,41.32
2019-04-22T16:54:30.737Z,41.49
2019-04-22T16:57:01.871Z,41.46
2019-04-22T16:59:32.757Z,41.67
2019-04-22T17:02:16.815Z,41.76
2019-04-22T17:04:50.903Z,42.34
2019-04-22T17:07:22.396Z,42.33
2019-04-22T17:09:52.286Z,42.49
2019-04-22T17:12:22.042Z,42.83
2019-04-22T17:14:56.816Z,42.96
2019-04-22T17:17:24.520Z,42.81
2019-04-22T17:19:55.501Z,42.87
2019-04-22T17:22:25.967Z,43.06
2019-04-22T17:24:56.118Z,43.17
2019-04-22T17:27:26.613Z,43.45
2019-04-22T17:29:57.018Z,43.52
2019-04-22T17:32:28.783Z,43.54
2019-04-22T17:34:59.348Z,43.80
2019-04-22T17:37:33.363Z,43.97
2019-04-22T17:40:17.910Z,44.08
2019-04-22T17:42:49.516Z,44.12
2019-04-22T17:45:35.320Z,44.40
2019-04-22T17:48:00.728Z,44.65
2019-04-22T17:50:39.248Z,44.74
2019-04-22T17:53:18.407Z,44.78
2019-04-22T17:55:48.943Z,44.83
2019-04-22T17:58:14.654Z,44.92
2019-04-22T18:00:39.848Z,45.13
2019-04-22T18:03:08.758Z,45.31
2019-04-22T18:05:35.670Z,45.48
2019-04-22T18:08:17.005Z,45.62
2019-04-22T18:10:51.049Z,45.85
2019-04-22T18:13:28.225Z,45.85
2019-04-22T18:15:54.773Z,46.01
2019-04-22T18:18:32.822Z,46.29
2019-04-22T18:20:50.946Z,46.49
2019-04-22T18:23:14.643Z,46.70
2019-04-22T18:25:59.078Z,46.89
2019-04-22T18:28:37.586Z,47.00
2019-04-22T18:31:01.284Z,47.19
2019-04-22T18:33:33.019Z,47.35
2019-04-22T18:36:04.074Z,47.41
2019-04-22T18:38:46.222Z,47.39
2019-04-22T18:41:09.050Z,47.74
2019-04-22T18:43:48.839Z,47.87
2019-04-22T18:46:14.658Z,48.03
2019-04-22T18:48:48.052Z,48.18
2019-04-22T18:51:27.708Z,48.32
2019-04-22T18:54:13.501Z,48.44
2019-04-22T18:56:41.865Z,48.47
2019-04-22T18:59:05.101Z,48.64
2019-04-22T19:01:25.682Z,48.88
2019-04-22T19:04:06.824Z,48.82
2019-04-22T19:06:50.453Z,49.00
2019-04-22T19:09:22.408Z,49.04
2019-04-22T19:12:06.231Z,49.13
2019-04-22T19:14:32.151Z,49.27
2019-04-22T19:16:55.418Z,49.47
2019-04-22T19:21:55.637Z,49.59
2019-04-22T19:24:22.889Z,49.64
2019-04-22T19:26:59.294Z,49.83
2019-04-22T19:29:31.801Z,49.94
2019-04-22T19:32:01.964Z,49.91
2019-04-22T19:34:31.703Z,50.42
2019-04-22T19:37:11.101Z,50.12
2019-04-22T19:39:33.024Z,50.20
2019-04-22T19:42:16.794Z,50.71
2019-04-22T19:44:39.364Z,51.13
2019-04-22T19:47:24.124Z,51.65
2019-04-22T19:49:52.506Z,51.63
2019-04-22T19:52:21.020Z,51.83
2019-04-22T19:54:53.132Z,51.84
2019-04-22T19:57:17.415Z,52.36
2019-04-22T19:59:55.915Z,52.41
2019-04-22T20:02:28.918Z,52.20
2019-04-22T20:05:12.533Z,52.37
2019-04-22T20:07:46.910Z,52.18
2019-04-22T20:10:18.646Z,52.09
2019-04-22T20:12:42.876Z,52.05
2019-04-22T20:15:15.618Z,52.15
2019-04-22T20:18:08.610Z,52.31
2019-04-22T20:20:27.456Z,52.72
2019-04-22T20:22:53.539Z,53.23
2019-04-22T20:25:16.709Z,53.50
2019-04-22T20:28:01.210Z,53.73
2019-04-22T20:30:34.656Z,53.77
2019-04-22T20:32:59.254Z,53.84
2019-04-22T20:35:39.095Z,53.75
2019-04-22T20:38:08.923Z,53.91
2019-04-22T20:40:39.548Z,54.02
2019-04-22T20:43:15.107Z,54.38
2019-04-22T20:45:39.620Z,54.43
2019-04-22T20:48:05.041Z,54.29
2019-04-22T20:50:48.035Z,54.18
2019-04-22T20:53:18.965Z,54.09
2019-04-22T20:55:47.869Z,54.70
2019-04-22T20:58:21.306Z,55.15
2019-04-22T21:00:40.670Z,55.29
2019-04-22T21:03:13.698Z,55.59
2019-04-22T21:05:44.432Z,55.14
2019-04-22T21:08:24.386Z,55.26
2019-04-22T21:10:50.770Z,54.94
2019-04-22T21:13:26.045Z,54.77
2019-04-22T21:16:04.123Z,55.00
2019-04-22T21:18:30.671Z,55.00
2019-04-22T21:21:11.407Z,54.75
2019-04-22T21:23:31.179Z,54.85
2019-04-22T21:26:11.590Z,55.23
2019-04-22T21:28:38.775Z,55.43
2019-04-22T21:31:19.125Z,55.44
2019-04-22T21:33:48.823Z,55.93
2019-04-22T21:36:20.588Z,55.71
2019-04-22T21:38:48.088Z,55.59
2019-04-22T21:41:17.161Z,55.97
2019-04-22T21:43:54.772Z,56.12
2019-04-22T21:46:23.196Z,56.39
2019-04-22T21:48:53.122Z,56.12
2019-04-22T21:51:31.725Z,56.11
2019-04-22T21:54:06.891Z,56.09
2019-04-22T21:56:54.841Z,56.38
2019-04-22T21:59:02.103Z,56.33
2019-04-22T22:01:42.619Z,56.08
2019-04-22T22:04:09.696Z,56.11
2019-04-22T22:06:33.665Z,56.13
2019-04-22T22:09:16.782Z,56.10
2019-04-22T22:11:38.603Z,55.99
2019-04-22T22:14:11.589Z,56.69
2019-04-22T22:16:38.416Z,57.87
2019-04-22T22:19:17.145Z,58.41
2019-04-22T22:21:57.005Z,58.20
2019-04-22T22:24:22.635Z,57.70
2019-04-22T22:26:55.584Z,57.95
2019-04-22T22:29:38.551Z,58.15
2019-04-22T22:31:58.182Z,58.33
2019-04-22T22:34:38.929Z,58.58
2019-04-22T22:36:53.030Z,58.82
2019-04-22T22:39:23.755Z,59.02
2019-04-22T22:41:41.966Z,59.37
2019-04-22T22:44:21.191Z,59.20
2019-04-22T22:47:03.636Z,58.98
2019-04-22T22:49:41.043Z,58.72
2019-04-22T22:52:31.456Z,58.51
2019-04-22T22:54:44.474Z,58.64
2019-04-22T22:57:25.503Z,58.88
2019-04-22T22:59:43.037Z,58.82
2019-04-22T23:02:11.619Z,58.96
2019-04-22T23:04:48.842Z,58.81
2019-04-22T23:07:25.223Z,58.65
2019-04-22T23:09:48.950Z,58.81
2019-04-22T23:12:31.248Z,59.25
2019-04-22T23:14:50.038Z,59.06
2019-04-22T23:17:10.102Z,59.20
2019-04-22T23:19:41.937Z,59.01
2019-04-22T23:22:20.380Z,58.93
2019-04-22T23:24:59.926Z,59.16
2019-04-22T23:27:44.518Z,59.15
2019-04-22T23:30:20.992Z,59.54
2019-04-22T23:32:57.820Z,60.33
2019-04-22T23:35:33.122Z,60.92
2019-04-22T23:38:07.345Z,60.71
2019-04-22T23:40:38.615Z,60.94
2019-04-22T23:43:17.937Z,60.81
2019-04-22T23:45:50.406Z,61.42
2019-04-22T23:48:15.426Z,60.99
2019-04-22T23:50:51.178Z,60.56
2019-04-22T23:53:56.926Z,60.43
2019-04-22T23:56:13.536Z,60.61
2019-04-22T23:58:47.148Z,60.56
